Time;durP1;ratioP1;P1;durP2;ratioP2;P2;SDS_P1;SDS_P2;PMS_P1;PMS_P2;Temp;Humidity;BMP_temperature;BMP_pressure;BME280_temperature;BME280_humidity;BME280_pressure;Samples;Min_cycle;Max_cycle;Signal;HPM_P1;HPM_P2
2022/01/18 00:01:57;;;;;;;11.40;3.87;;;;;;;-2.23;100.00;102374.88;5040306;28;20052;-82
2022/01/18 00:04:27;;;;;;;13.90;3.50;;;;;;;-2.29;100.00;102379.69;5077098;28;20040;-83
2022/01/18 00:06:54;;;;;;;8.00;3.47;;;;;;;-2.36;100.00;102380.13;5043329;28;20046;-85
2022/01/18 00:09:24;;;;;;;16.07;3.47;;;;;;;-2.36;100.00;102378.44;5050675;28;20043;-83
2022/01/18 00:11:59;;;;;;;8.57;3.00;;;;;;;-2.35;100.00;102382.84;5058758;28;20047;-81
2022/01/18 00:14:39;;;;;;;6.77;2.87;;;;;;;-2.38;100.00;102384.34;5044290;28;20044;-84
2022/01/18 00:17:17;;;;;;;13.47;5.37;;;;;;;-2.37;100.00;102389.59;5059895;28;20554;-83
2022/01/18 00:19:53;;;;;;;7.37;3.10;;;;;;;-2.40;100.00;102392.03;5045724;28;20044;-83
2022/01/18 00:22:20;;;;;;;12.77;4.77;;;;;;;-2.38;100.00;102399.88;5057922;28;20082;-83
2022/01/18 00:24:50;;;;;;;16.33;4.40;;;;;;;-2.34;100.00;102402.75;5060217;28;20044;-82
2022/01/18 00:27:18;;;;;;;17.50;4.97;;;;;;;-2.20;100.00;102407.81;5073787;28;20097;-84
2022/01/18 00:30:38;;;;;;;15.27;4.93;;;;;;;-2.15;100.00;102411.59;5044029;28;20040;-84
2022/01/18 00:32:54;;;;;;;11.50;3.60;;;;;;;-2.14;100.00;102414.28;5073192;28;20056;-83
2022/01/18 00:35:31;;;;;;;15.50;4.60;;;;;;;-2.11;100.00;102419.63;5078007;28;20040;-82
2022/01/18 00:37:58;;;;;;;24.60;4.63;;;;;;;-2.05;100.00;102411.31;5056339;28;20040;-81
2022/01/18 00:40:28;;;;;;;22.03;4.70;;;;;;;-2.04;100.00;102407.94;5076587;28;20569;-86
2022/01/18 00:42:55;;;;;;;18.40;4.67;;;;;;;-1.97;100.00;102425.63;5057063;28;20130;-82
2022/01/18 00:45:22;;;;;;;11.37;4.57;;;;;;;-1.98;100.00;102423.84;5058354;28;20045;-82
2022/01/18 00:47:52;;;;;;;10.83;3.93;;;;;;;-1.99;100.00;102428.13;5058749;28;20054;-82
2022/01/18 00:50:18;;;;;;;17.10;4.53;;;;;;;-2.00;100.00;102434.09;5044284;28;20048;-84
2022/01/18 00:52:50;;;;;;;10.73;3.87;;;;;;;-1.99;100.00;102442.78;5040596;28;20105;-83
2022/01/18 00:55:17;;;;;;;14.80;4.80;;;;;;;-1.99;100.00;102445.34;5061982;28;20040;-85
2022/01/18 00:57:43;;;;;;;18.27;5.00;;;;;;;-1.92;100.00;102444.91;5065078;28;20515;-81
2022/01/18 01:00:11;;;;;;;12.97;5.07;;;;;;;-1.93;100.00;102442.22;5075915;28;20043;-81
2022/01/18 01:02:37;;;;;;;12.53;5.33;;;;;;;-1.89;100.00;102446.78;5042205;28;20036;-84
2022/01/18 01:05:15;;;;;;;18.43;4.47;;;;;;;-1.93;100.00;102450.91;5061894;28;20097;-81
2022/01/18 01:07:43;;;;;;;16.57;4.80;;;;;;;-1.90;100.00;102458.84;5042920;28;20565;-81
2022/01/18 01:10:28;;;;;;;15.20;5.33;;;;;;;-1.94;100.00;102459.44;5079310;28;20036;-84
2022/01/18 01:12:55;;;;;;;15.10;5.03;;;;;;;-1.99;100.00;102468.66;5073317;28;20100;-82
2022/01/18 01:15:27;;;;;;;15.00;5.23;;;;;;;-2.04;100.00;102459.72;5042619;28;20044;-82
2022/01/18 01:18:30;;;;;;;18.10;4.63;;;;;;;-2.05;100.00;102460.53;5046359;28;20127;-82
2022/01/18 01:34:50;;;;;;;9.60;3.37;;;;;;;-2.18;100.00;102465.78;5076338;28;20044;-82
2022/01/18 01:43:21;;;;;;;14.03;3.67;;;;;;;-2.38;100.00;102473.22;4991605;28;20038;-83
2022/01/18 01:45:50;;;;;;;13.77;4.37;;;;;;;-2.38;100.00;102486.16;5006526;28;20054;-82
2022/01/18 01:48:18;;;;;;;14.10;3.63;;;;;;;-2.46;100.00;102477.03;5029231;28;20397;-82
2022/01/18 01:53:17;;;;;;;9.47;4.23;;;;;;;-2.51;100.00;102480.19;5002486;28;20041;-83
2022/01/18 01:55:44;;;;;;;10.77;3.63;;;;;;;-2.57;100.00;102483.25;4998214;28;20045;-83
2022/01/18 01:58:11;;;;;;;10.47;4.23;;;;;;;-2.61;100.00;102482.19;5006444;28;20045;-82
2022/01/18 02:00:47;;;;;;;12.03;3.70;;;;;;;-2.66;100.00;102473.25;5013509;28;20132;-82
2022/01/18 02:03:14;;;;;;;20.63;4.10;;;;;;;-2.69;100.00;102467.88;4977688;28;20046;-83
2022/01/18 02:05:41;;;;;;;10.93;4.43;;;;;;;-2.69;100.00;102470.47;5013677;28;20041;-83
2022/01/18 02:08:08;;;;;;;15.73;5.53;;;;;;;-2.70;100.00;102472.94;4989935;28;20041;-83
2022/01/18 02:10:35;;;;;;;12.07;2.87;;;;;;;-2.79;100.00;102470.69;4990374;28;20075;-82
2022/01/18 02:13:07;;;;;;;10.10;3.40;;;;;;;-2.83;100.00;102481.66;4980488;28;20395;-83
2022/01/18 02:15:42;;;;;;;7.17;3.40;;;;;;;-2.88;100.00;102475.28;4972998;28;20461;-82
2022/01/18 02:23:39;;;;;;;11.27;3.40;;;;;;;-2.95;100.00;102476.56;5011393;28;20491;-83
2022/01/18 02:26:06;;;;;;;7.80;4.20;;;;;;;-2.96;100.00;102479.06;4997184;28;20084;-81
2022/01/18 02:28:32;;;;;;;10.03;3.90;;;;;;;-3.01;100.00;102473.63;4995322;28;20050;-83
2022/01/18 02:30:59;;;;;;;13.30;4.83;;;;;;;-3.02;100.00;102469.25;4996935;28;20045;-84
2022/01/18 02:33:26;;;;;;;9.47;4.00;;;;;;;-3.02;100.00;102484.78;4998518;28;20050;-83
2022/01/18 02:35:53;;;;;;;8.40;4.33;;;;;;;-3.02;100.00;102487.34;4993702;28;20100;-83
2022/01/18 02:38:21;;;;;;;14.77;4.07;;;;;;;-3.05;100.00;102487.13;4993096;28;20535;-82
2022/01/18 02:40:48;;;;;;;17.00;3.83;;;;;;;-3.06;100.00;102487.94;4991917;28;20046;-81
2022/01/18 02:46:00;;;;;;;10.23;3.70;;;;;;;-3.07;100.00;102491.31;5011987;28;20107;-83
2022/01/18 02:48:27;;;;;;;12.03;4.53;;;;;;;-3.11;100.00;102484.19;4992586;28;20053;-82
2022/01/18 02:50:53;;;;;;;11.83;3.50;;;;;;;-3.13;100.00;102468.56;4994392;28;20043;-83
2022/01/18 02:53:20;;;;;;;11.73;3.43;;;;;;;-3.14;100.00;102474.53;5003982;28;20129;-82
2022/01/18 02:55:55;;;;;;;9.60;3.70;;;;;;;-3.10;100.00;102472.16;4998237;28;20446;-82
2022/01/18 02:58:31;;;;;;;7.87;3.40;;;;;;;-3.07;100.00;102470.66;4975577;28;20042;-83
2022/01/18 03:03:32;;;;;;;16.60;5.87;;;;;;;-2.94;100.00;102462.88;4995863;28;20096;-82
2022/01/18 03:06:00;;;;;;;12.83;4.07;;;;;;;-2.86;100.00;102478.84;5008601;28;20059;-83
2022/01/18 03:08:28;;;;;;;14.40;4.03;;;;;;;-2.82;100.00;102473.09;5011101;28;20049;-82
2022/01/18 03:10:55;;;;;;;17.03;4.17;;;;;;;-2.72;100.00;102483.19;4979262;28;20042;-81
2022/01/18 03:13:24;;;;;;;9.97;3.40;;;;;;;-2.66;100.00;102480.13;4978698;28;20051;-82
2022/01/18 03:15:50;;;;;;;9.50;3.83;;;;;;;-2.56;100.00;102485.94;4980254;28;20045;-82
2022/01/18 03:18:17;;;;;;;14.90;4.27;;;;;;;-2.49;100.00;102476.88;4995093;28;20589;-82
2022/01/18 03:20:44;;;;;;;23.80;6.80;;;;;;;-2.38;100.00;102483.59;4992627;28;20049;-82
2022/01/18 03:23:16;;;;;;;15.23;5.43;;;;;;;-2.36;100.00;102479.38;4992094;28;20433;-82
2022/01/18 03:25:54;;;;;;;19.77;4.30;;;;;;;-2.32;100.00;102486.56;4997260;28;20038;-83
2022/01/18 03:28:22;;;;;;;14.67;4.23;;;;;;;-2.22;100.00;102492.28;4980469;28;20041;-82
2022/01/18 03:30:54;;;;;;;19.43;5.30;;;;;;;-2.19;100.00;102495.94;4996110;28;20045;-83
2022/01/18 03:33:22;;;;;;;15.17;5.07;;;;;;;-2.07;100.00;102506.16;4978989;28;20482;-82
2022/01/18 03:35:50;;;;;;;14.27;5.47;;;;;;;-2.02;100.00;102505.66;4985211;28;20551;-82
2022/01/18 03:38:19;;;;;;;15.03;4.90;;;;;;;-2.01;100.00;102511.72;4979506;28;20041;-82
2022/01/18 03:40:45;;;;;;;13.87;5.00;;;;;;;-2.01;100.00;102507.44;5015135;28;20095;-82
2022/01/18 03:43:13;;;;;;;19.17;4.97;;;;;;;-1.96;100.00;102507.69;5014563;28;20132;-81
2022/01/18 03:45:44;;;;;;;14.43;4.43;;;;;;;-1.98;100.00;102502.44;4980394;28;20045;-82
2022/01/18 03:48:17;;;;;;;16.33;4.77;;;;;;;-1.94;100.00;102512.94;5009303;28;20069;-82
2022/01/18 03:50:43;;;;;;;10.77;3.90;;;;;;;-1.93;100.00;102520.84;4994410;28;20045;-82
2022/01/18 03:53:11;;;;;;;17.57;5.13;;;;;;;-1.91;100.00;102523.53;4973025;28;20491;-82
2022/01/18 03:55:38;;;;;;;15.50;4.70;;;;;;;-1.87;100.00;102517.69;4979666;28;20092;-82
2022/01/18 03:58:05;;;;;;;13.97;4.33;;;;;;;-1.87;100.00;102528.06;4988641;28;20434;-82
2022/01/18 04:00:31;;;;;;;12.00;3.93;;;;;;;-1.88;100.00;102529.75;4994381;28;20384;-83
2022/01/18 04:02:59;;;;;;;17.13;5.17;;;;;;;-1.88;100.00;102532.34;4990265;28;20045;-82
2022/01/18 04:05:26;;;;;;;11.07;4.37;;;;;;;-1.90;100.00;102541.75;4994193;28;20069;-82
2022/01/18 04:07:53;;;;;;;11.63;4.40;;;;;;;-1.92;100.00;102524.31;4994424;28;20042;-82
2022/01/18 04:10:20;;;;;;;10.30;4.00;;;;;;;-1.95;100.00;102524.13;5019179;28;20053;-82
2022/01/18 04:12:47;;;;;;;12.87;4.67;;;;;;;-1.97;100.00;102524.03;4992788;28;20088;-82
2022/01/18 04:15:16;;;;;;;14.37;4.43;;;;;;;-1.99;100.00;102530.81;4994994;28;20502;-82
2022/01/18 04:18:05;;;;;;;22.17;6.13;;;;;;;-1.98;100.00;102540.38;4993256;28;20049;-82
2022/01/18 04:26:52;;;;;;;12.87;5.00;;;;;;;-1.99;100.00;102528.25;5017589;28;20045;-82
2022/01/18 04:28:58;;;;;;;17.37;6.03;;;;;;;-1.93;100.00;102530.28;5000247;28;20045;-82
2022/01/18 04:31:25;;;;;;;16.40;5.33;;;;;;;-1.93;100.00;102536.38;4983617;28;20049;-83
2022/01/18 04:33:52;;;;;;;13.07;6.00;;;;;;;-1.90;100.00;102538.25;4979773;28;20049;-82
2022/01/18 04:36:19;;;;;;;16.80;4.90;;;;;;;-1.88;100.00;102553.06;5001591;28;20041;-82
2022/01/18 04:38:46;;;;;;;13.73;4.50;;;;;;;-1.81;100.00;102554.34;4986220;28;20046;-82
2022/01/18 04:41:16;;;;;;;15.87;4.93;;;;;;;-1.78;100.00;102552.81;5012376;28;20057;-82
2022/01/18 04:49:06;;;;;;;13.97;5.70;;;;;;;-1.54;100.00;102557.69;5014592;28;20060;-82
2022/01/18 04:51:33;;;;;;;21.70;6.53;;;;;;;-1.59;100.00;102552.25;4988241;28;20064;-83
2022/01/18 04:54:02;;;;;;;15.77;7.07;;;;;;;-1.59;100.00;102548.75;4998211;28;20726;-81
2022/01/18 04:59:18;;;;;;;19.10;6.40;;;;;;;-1.54;100.00;102549.91;4993401;28;20581;-82
2022/01/18 05:01:47;;;;;;;19.27;5.87;;;;;;;-1.45;100.00;102553.91;5012244;28;20075;-82
2022/01/18 05:04:14;;;;;;;17.80;6.10;;;;;;;-1.42;100.00;102542.84;4980893;28;20140;-81
2022/01/18 05:06:42;;;;;;;12.47;4.87;;;;;;;-1.45;100.00;102561.69;4995960;28;20045;-82
2022/01/18 05:09:11;;;;;;;16.87;5.83;;;;;;;-1.43;100.00;102561.78;4992426;28;20056;-83
2022/01/18 05:12:06;;;;;;;15.40;4.97;;;;;;;-1.46;100.00;102569.38;5016479;28;20042;-83
2022/01/18 05:14:32;;;;;;;14.40;4.20;;;;;;;-1.49;100.00;102561.44;5020417;28;20452;-81
2022/01/18 05:17:10;;;;;;;10.47;4.13;;;;;;;-1.58;100.00;102564.38;4982224;28;20041;-81
2022/01/18 05:20:00;;;;;;;14.40;4.40;;;;;;;-1.66;100.00;102562.16;5015626;28;20052;-81
2022/01/18 05:25:12;;;;;;;14.93;4.60;;;;;;;-1.77;100.00;102570.16;5030582;28;20108;-81
2022/01/18 05:27:39;;;;;;;15.87;5.47;;;;;;;-1.77;100.00;102557.19;5001130;28;20071;-82
2022/01/18 05:30:06;;;;;;;11.40;5.60;;;;;;;-1.85;100.00;102557.53;5013426;28;20129;-81
2022/01/18 05:32:33;;;;;;;11.37;4.90;;;;;;;-1.92;100.00;102568.38;4996301;28;20048;-82
2022/01/18 05:34:59;;;;;;;16.27;6.00;;;;;;;-1.93;100.00;102572.66;4996885;28;20045;-81
2022/01/18 05:37:26;;;;;;;20.73;7.40;;;;;;;-1.99;100.00;102565.38;5012839;28;20042;-82
2022/01/18 05:39:52;;;;;;;22.47;8.47;;;;;;;-1.99;100.00;102573.16;4998064;28;20104;-81
2022/01/18 05:42:19;;;;;;;12.70;6.23;;;;;;;-2.06;100.00;102567.50;5003771;28;20491;-81
2022/01/18 05:44:47;;;;;;;21.40;6.83;;;;;;;-2.07;100.00;102574.38;5006121;28;20491;-81
2022/01/18 05:47:14;;;;;;;13.53;5.43;;;;;;;-2.13;100.00;102575.69;4992846;28;20045;-81
2022/01/18 05:49:40;;;;;;;24.90;7.53;;;;;;;-2.12;100.00;102580.06;5013954;28;20498;-81
2022/01/18 05:52:07;;;;;;;23.77;6.43;;;;;;;-2.10;100.00;102581.06;5005918;28;20042;-82
2022/01/18 05:54:34;;;;;;;20.30;5.77;;;;;;;-2.06;100.00;102586.53;4997569;28;20486;-82
2022/01/18 05:57:00;;;;;;;16.90;4.53;;;;;;;-2.08;100.00;102588.13;4994018;28;20446;-82
2022/01/18 05:59:35;;;;;;;17.33;4.60;;;;;;;-2.09;100.00;102598.41;4994046;28;20404;-82
2022/01/18 06:02:13;;;;;;;15.63;7.13;;;;;;;-2.07;100.00;102595.09;4995140;28;20053;-81
2022/01/18 06:07:26;;;;;;;16.90;5.43;;;;;;;-2.06;100.00;102606.34;4977463;28;20100;-81
2022/01/18 06:09:58;;;;;;;17.43;5.27;;;;;;;-2.12;100.00;102609.44;4992539;28;20638;-81
2022/01/18 06:12:29;;;;;;;12.40;4.97;;;;;;;-2.13;100.00;102611.94;4995200;28;20103;-82
2022/01/18 06:14:56;;;;;;;16.27;7.57;;;;;;;-2.10;100.00;102617.31;4996269;28;20524;-82
2022/01/18 06:17:22;;;;;;;16.20;6.80;;;;;;;-2.18;100.00;102601.31;5019364;28;20092;-81
2022/01/18 06:19:49;;;;;;;17.60;6.37;;;;;;;-2.17;100.00;102602.22;4996693;28;20099;-82
2022/01/18 06:22:16;;;;;;;19.63;7.60;;;;;;;-2.13;100.00;102599.91;4994385;28;20075;-82
2022/01/18 06:24:43;;;;;;;19.10;7.67;;;;;;;-2.12;100.00;102611.16;4965792;28;20674;-81
2022/01/18 06:27:09;;;;;;;23.50;6.47;;;;;;;-2.07;100.00;102600.28;4958847;28;20064;-81
2022/01/18 06:29:36;;;;;;;15.63;5.50;;;;;;;-2.01;100.00;102599.78;5003107;28;20049;-81
2022/01/18 06:32:05;;;;;;;20.43;7.20;;;;;;;-1.95;100.00;102594.06;4973962;28;20042;-81
2022/01/18 06:34:32;;;;;;;20.90;6.43;;;;;;;-2.02;100.00;102595.38;4959868;28;20045;-82
2022/01/18 06:36:58;;;;;;;22.93;7.33;;;;;;;-2.01;100.00;102604.97;4990779;28;20042;-81
2022/01/18 06:39:25;;;;;;;20.37;7.37;;;;;;;-2.03;100.00;102609.13;4975905;28;20041;-81
2022/01/18 06:41:52;;;;;;;20.20;10.13;;;;;;;-2.03;100.00;102617.78;4987201;28;20069;-81
2022/01/18 06:44:19;;;;;;;16.43;7.40;;;;;;;-1.96;100.00;102618.19;4994370;28;20034;-81
2022/01/18 06:46:45;;;;;;;12.93;5.30;;;;;;;-2.05;100.00;102624.56;4992780;28;20116;-81
2022/01/18 06:49:12;;;;;;;14.00;4.53;;;;;;;-2.08;100.00;102619.22;4995469;28;20418;-81
2022/01/18 06:51:39;;;;;;;11.30;4.67;;;;;;;-2.09;100.00;102621.72;4994407;28;21019;-82
2022/01/18 06:54:12;;;;;;;12.90;4.53;;;;;;;-2.09;100.00;102625.19;4995186;28;20041;-81
2022/01/18 06:56:43;;;;;;;18.27;5.73;;;;;;;-2.08;100.00;102639.03;5010368;28;20053;-82
2022/01/18 06:59:10;;;;;;;14.27;5.10;;;;;;;-2.10;100.00;102648.38;5011450;28;20065;-81
2022/01/18 07:01:36;;;;;;;15.23;5.00;;;;;;;-2.09;100.00;102653.69;4989861;28;20042;-82
2022/01/18 07:04:03;;;;;;;15.50;6.07;;;;;;;-2.05;100.00;102654.75;4995525;28;20049;-81
2022/01/18 07:06:31;;;;;;;16.77;5.27;;;;;;;-2.09;100.00;102652.78;4978263;28;20045;-82
2022/01/18 07:08:58;;;;;;;18.27;5.93;;;;;;;-2.08;100.00;102652.00;4995116;28;20490;-82
2022/01/18 07:11:25;;;;;;;20.33;6.90;;;;;;;-2.07;100.00;102665.03;4994582;28;20099;-82
2022/01/18 07:13:52;;;;;;;15.77;6.57;;;;;;;-2.02;100.00;102655.88;4994088;28;20037;-81
2022/01/18 07:16:19;;;;;;;18.33;5.57;;;;;;;-2.08;100.00;102663.25;4978950;28;20533;-80
2022/01/18 07:18:45;;;;;;;19.70;7.00;;;;;;;-2.04;100.00;102672.09;5008355;28;20601;-81
2022/01/18 07:21:12;;;;;;;19.00;5.90;;;;;;;-2.14;100.00;102674.91;4973195;28;20053;-82
2022/01/18 07:23:40;;;;;;;15.43;7.57;;;;;;;-2.15;100.00;102694.72;4988684;28;20080;-82
2022/01/18 07:26:09;;;;;;;15.07;6.10;;;;;;;-2.16;100.00;102698.13;4968651;28;20042;-82
2022/01/18 07:28:36;;;;;;;12.17;4.97;;;;;;;-2.13;100.00;102692.22;4992331;28;20045;-82
2022/01/18 07:31:02;;;;;;;9.40;4.50;;;;;;;-2.22;100.00;102704.59;4981301;28;20053;-82
2022/01/18 07:33:29;;;;;;;13.83;4.80;;;;;;;-2.24;100.00;102708.78;4982274;28;20084;-83
2022/01/18 07:35:55;;;;;;;11.53;4.93;;;;;;;-2.29;100.00;102711.06;5004064;28;20037;-83
2022/01/18 07:38:22;;;;;;;16.47;6.43;;;;;;;-2.18;100.00;102716.94;4998094;28;20057;-83
2022/01/18 07:40:49;;;;;;;13.30;4.70;;;;;;;-2.27;100.00;102710.38;5021098;28;20045;-82
2022/01/18 07:43:18;;;;;;;12.40;4.37;;;;;;;-2.29;100.00;102721.41;4994393;28;20048;-82
2022/01/18 07:45:51;;;;;;;11.20;5.10;;;;;;;-2.28;100.00;102728.38;4998073;28;20053;-83
2022/01/18 07:48:23;;;;;;;21.27;6.53;;;;;;;-2.24;100.00;102730.38;4979615;28;20046;-82
2022/01/18 07:50:51;;;;;;;16.03;5.47;;;;;;;-2.25;100.00;102720.84;4982137;28;20057;-83
2022/01/18 07:53:18;;;;;;;9.03;5.03;;;;;;;-2.30;100.00;102730.88;4992962;28;20045;-81
2022/01/18 07:55:47;;;;;;;10.77;5.03;;;;;;;-2.31;100.00;102742.03;4997086;28;20049;-83
2022/01/18 07:58:14;;;;;;;15.70;4.70;;;;;;;-2.28;100.00;102739.63;4978978;28;20037;-83
2022/01/18 08:00:41;;;;;;;14.03;4.13;;;;;;;-2.24;100.00;102740.75;5000224;28;20729;-82
2022/01/18 08:03:08;;;;;;;15.47;5.40;;;;;;;-2.24;100.00;102745.94;4997080;28;20037;-83
2022/01/18 08:05:38;;;;;;;14.07;5.13;;;;;;;-2.21;100.00;102746.09;4982508;28;20060;-82
2022/01/18 08:08:08;;;;;;;10.37;4.27;;;;;;;-2.21;100.00;102747.81;5000544;28;20041;-83
2022/01/18 08:10:35;;;;;;;14.70;5.03;;;;;;;-2.20;100.00;102742.72;4999826;28;20123;-82
2022/01/18 08:13:05;;;;;;;10.60;5.67;;;;;;;-2.16;100.00;102749.00;4996448;28;20124;-83
2022/01/18 08:15:39;;;;;;;16.97;5.97;;;;;;;-2.14;100.00;102747.41;5040282;28;20472;-83
2022/01/18 08:18:12;;;;;;;13.00;5.23;;;;;;;-2.10;100.00;102750.31;4983819;28;20041;-82
2022/01/18 08:20:38;;;;;;;11.97;4.90;;;;;;;-2.07;100.00;102760.84;5000279;28;20194;-80
2022/01/18 08:23:06;;;;;;;11.33;4.40;;;;;;;-2.05;100.00;102746.31;5002253;28;20045;-83
2022/01/18 08:25:34;;;;;;;14.93;4.77;;;;;;;-2.03;100.00;102752.47;5016497;28;20462;-82
2022/01/18 08:28:02;;;;;;;11.13;3.67;;;;;;;-2.01;100.00;102753.47;5026552;28;20042;-82
2022/01/18 08:30:35;;;;;;;16.07;4.73;;;;;;;-1.92;100.00;102742.81;5019354;28;20052;-83
2022/01/18 08:33:04;;;;;;;9.60;4.90;;;;;;;-1.93;100.00;102743.63;5000069;28;20407;-83
2022/01/18 08:35:32;;;;;;;14.63;5.13;;;;;;;-1.93;100.00;102751.38;4984096;28;20132;-82
2022/01/18 08:37:59;;;;;;;10.77;5.10;;;;;;;-1.87;100.00;102756.94;4998510;28;20057;-82
2022/01/18 08:40:26;;;;;;;13.80;5.23;;;;;;;-1.87;100.00;102756.03;4982752;28;20049;-83
2022/01/18 08:42:58;;;;;;;15.37;5.07;;;;;;;-1.83;100.00;102750.25;4992906;28;20402;-82
2022/01/18 08:45:26;;;;;;;18.27;7.53;;;;;;;-1.82;100.00;102758.13;5014935;28;20128;-81
2022/01/18 08:47:53;;;;;;;16.63;7.53;;;;;;;-1.82;100.00;102755.53;5013097;28;20667;-82
2022/01/18 08:50:20;;;;;;;12.37;5.87;;;;;;;-1.79;100.00;102760.91;4982432;28;20049;-81
2022/01/18 08:52:51;;;;;;;17.20;5.97;;;;;;;-1.75;100.00;102765.50;5011488;28;20041;-82
2022/01/18 08:55:18;;;;;;;14.13;6.13;;;;;;;-1.70;100.00;102769.25;5017646;28;20049;-82
2022/01/18 08:57:46;;;;;;;17.83;5.53;;;;;;;-1.63;100.00;102769.66;5016912;28;20045;-83
2022/01/18 09:00:15;;;;;;;23.80;8.77;;;;;;;-1.49;100.00;102774.00;5017007;28;20048;-82
2022/01/18 09:02:41;;;;;;;19.33;8.43;;;;;;;-1.44;100.00;102770.88;4999671;28;20050;-82
2022/01/18 09:05:09;;;;;;;22.37;9.00;;;;;;;-1.37;100.00;102779.94;4997163;28;20041;-81
2022/01/18 09:07:37;;;;;;;19.43;8.23;;;;;;;-1.26;100.00;102778.00;4979538;28;20530;-81
2022/01/18 09:10:07;;;;;;;17.00;6.93;;;;;;;-1.17;100.00;102771.69;4995178;28;20071;-82
2022/01/18 09:12:34;;;;;;;22.13;8.90;;;;;;;-1.02;100.00;102778.59;5011893;28;20518;-82
2022/01/18 09:15:05;;;;;;;23.27;10.10;;;;;;;-0.98;100.00;102778.00;4980897;28;20044;-82
2022/01/18 09:17:33;;;;;;;18.97;7.33;;;;;;;-0.91;100.00;102788.84;5011951;28;20041;-82
2022/01/18 09:20:05;;;;;;;16.20;7.07;;;;;;;-0.85;100.00;102785.69;4996078;28;20402;-82
2022/01/18 09:22:35;;;;;;;18.30;6.97;;;;;;;-0.78;100.00;102776.59;4991257;28;20056;-83
2022/01/18 09:25:04;;;;;;;19.63;7.73;;;;;;;-0.71;100.00;102781.34;4998851;28;20049;-82
2022/01/18 09:27:31;;;;;;;16.67;7.10;;;;;;;-0.65;100.00;102774.81;4987151;28;20045;-83
2022/01/18 09:29:58;;;;;;;18.60;6.00;;;;;;;-0.57;100.00;102780.44;5035330;28;20098;-82
2022/01/18 09:32:24;;;;;;;16.47;6.77;;;;;;;-0.45;100.00;102778.56;5000155;28;20046;-83
2022/01/18 09:34:51;;;;;;;20.13;6.43;;;;;;;-0.43;100.00;102782.13;5092417;22;20455;-82
2022/01/18 09:37:18;;;;;;;17.20;6.07;;;;;;;-0.41;100.00;102777.94;5064851;28;20036;-83
2022/01/18 09:39:45;;;;;;;27.00;7.90;;;;;;;-0.40;100.00;102792.72;5041697;28;20108;-83
2022/01/18 09:42:12;;;;;;;18.67;6.77;;;;;;;-0.36;100.00;102785.97;5040179;28;20044;-82
2022/01/18 09:44:39;;;;;;;20.53;7.17;;;;;;;-0.31;100.00;102803.63;5059269;28;20043;-83
2022/01/18 09:47:07;;;;;;;17.77;5.83;;;;;;;-0.25;100.00;102805.72;5041363;28;20040;-83
2022/01/18 09:49:34;;;;;;;13.37;6.43;;;;;;;-0.19;100.00;102808.63;5058581;28;20083;-81
2022/01/18 09:52:02;;;;;;;18.67;8.17;;;;;;;-0.13;100.00;102798.59;5071555;28;20044;-81
2022/01/18 09:54:28;;;;;;;26.97;13.40;;;;;;;-0.04;100.00;102801.72;5022330;28;20493;-81
2022/01/18 09:56:56;;;;;;;22.87;8.50;;;;;;;0.02;100.00;102800.28;5020245;28;20049;-81
2022/01/18 09:59:22;;;;;;;14.70;7.50;;;;;;;0.14;100.00;102798.38;5027527;28;20049;-82
2022/01/18 10:01:49;;;;;;;18.30;9.40;;;;;;;0.27;100.00;102798.25;5000620;28;20053;-82
2022/01/18 10:04:22;;;;;;;15.93;6.90;;;;;;;0.40;100.00;102803.31;5008427;28;20503;-82
2022/01/18 10:06:51;;;;;;;18.40;5.23;;;;;;;0.48;100.00;102799.41;5015631;28;20044;-81
2022/01/18 10:09:19;;;;;;;20.37;5.60;;;;;;;0.67;100.00;102808.22;5045517;28;20040;-82
2022/01/18 10:12:02;;;;;;;23.20;7.67;;;;;;;0.78;100.00;102814.91;5027205;28;20052;-80
2022/01/18 10:14:30;;;;;;;53.80;34.17;;;;;;;0.82;100.00;102806.44;5034998;28;20041;-83
2022/01/18 10:16:56;;;;;;;22.57;12.57;;;;;;;0.84;100.00;102804.81;4999353;28;20264;-80
2022/01/18 10:19:33;;;;;;;19.17;8.30;;;;;;;0.81;100.00;102802.06;5001256;28;20048;-82
2022/01/18 10:22:18;;;;;;;16.20;6.53;;;;;;;0.79;100.00;102801.97;5028994;28;20053;-81
2022/01/18 10:24:45;;;;;;;14.30;5.03;;;;;;;0.94;100.00;102795.81;5019289;28;20045;-82
2022/01/18 10:27:13;;;;;;;12.77;7.80;;;;;;;0.93;100.00;102801.84;5019743;28;20040;-82
2022/01/18 10:29:47;;;;;;;14.20;6.77;;;;;;;0.97;100.00;102801.16;5005333;28;20079;-82
2022/01/18 10:32:31;;;;;;;21.35;6.00;;;;;;;1.03;100.00;102794.59;5000714;28;20472;-84
2022/01/18 10:37:29;;;;;;;25.63;10.97;;;;;;;1.24;100.00;102783.47;5054413;28;20086;-84
2022/01/18 10:39:59;;;;;;;17.03;5.77;;;;;;;1.37;100.00;102778.09;5006868;28;20456;-83
2022/01/18 10:42:32;;;;;;;11.07;6.23;;;;;;;1.48;100.00;102778.63;5000048;28;20045;-83
2022/01/18 10:45:09;;;;;;;10.67;4.23;;;;;;;1.56;100.00;102791.22;5014680;28;20494;-84
2022/01/18 10:47:37;;;;;;;14.27;5.53;;;;;;;1.67;100.00;102791.75;5016503;28;20091;-83
2022/01/18 10:50:15;;;;;;;17.67;4.47;;;;;;;1.81;100.00;102793.34;5018849;28;20037;-85
2022/01/18 10:52:42;;;;;;;10.47;4.77;;;;;;;1.98;100.00;102802.00;5034480;28;20135;-84
2022/01/18 10:55:18;;;;;;;10.63;4.50;;;;;;;2.01;100.00;102799.53;5020361;28;20051;-83
2022/01/18 10:57:45;;;;;;;12.20;4.67;;;;;;;2.06;100.00;102802.38;5034683;28;20037;-84
2022/01/18 11:00:18;;;;;;;9.50;4.17;;;;;;;2.31;100.00;102787.06;5017241;28;20047;-84
2022/01/18 11:02:50;;;;;;;13.80;3.20;;;;;;;2.38;100.00;102785.66;5016819;28;20470;-84
2022/01/18 11:05:32;;;;;;;11.07;4.03;;;;;;;2.71;100.00;102778.50;5011299;28;20045;-84
2022/01/18 11:08:04;;;;;;;8.37;4.33;;;;;;;2.63;100.00;102787.69;5032510;28;20045;-83
2022/01/18 11:10:36;;;;;;;9.70;3.90;;;;;;;2.59;100.00;102778.81;5020722;28;20497;-83
2022/01/18 11:13:24;;;;;;;12.30;4.50;;;;;;;2.68;100.00;102779.22;5034520;28;20957;-84
2022/01/18 11:16:01;;;;;;;12.27;3.63;;;;;;;2.62;100.00;102783.28;5000319;28;20043;-83
2022/01/18 11:18:30;;;;;;;13.33;5.37;;;;;;;2.73;100.00;102774.22;5017651;28;21709;-84
2022/01/18 11:21:00;;;;;;;13.67;5.50;;;;;;;2.81;100.00;102778.06;5016356;28;20055;-84
2022/01/18 11:23:27;;;;;;;10.53;5.07;;;;;;;2.79;100.00;102779.72;5020219;28;20056;-85
2022/01/18 11:25:58;;;;;;;12.33;3.50;;;;;;;2.86;100.00;102788.69;5033417;28;20139;-84
2022/01/18 11:28:26;;;;;;;38.53;15.53;;;;;;;2.90;100.00;102798.47;5016901;28;20513;-85
2022/01/18 11:30:52;;;;;;;12.83;4.80;;;;;;;2.83;100.00;102795.59;5014585;28;20045;-84
2022/01/18 11:33:22;;;;;;;13.20;4.03;;;;;;;2.86;100.00;102789.63;5002072;28;20041;-84
2022/01/18 11:36:02;;;;;;;12.97;4.70;;;;;;;2.91;100.00;102793.31;5020047;28;20416;-84
2022/01/18 11:38:51;;;;;;;11.77;3.77;;;;;;;2.92;100.00;102792.50;5024045;28;20064;-85
2022/01/18 11:41:22;;;;;;;8.33;3.43;;;;;;;3.04;100.00;102800.88;5003910;28;20135;-85
2022/01/18 11:43:51;;;;;;;16.17;3.57;;;;;;;3.19;100.00;102791.91;5036738;28;20409;-85
2022/01/18 11:46:35;;;;;;;27.10;12.07;;;;;;;3.32;100.00;102797.75;5005677;28;20600;-85
2022/01/18 11:49:04;;;;;;;13.73;6.20;;;;;;;3.33;100.00;102802.16;5036477;28;20044;-85
2022/01/18 11:51:47;;;;;;;22.27;7.33;;;;;;;3.35;100.00;102803.09;5003056;28;20098;-85
2022/01/18 11:57:03;;;;;;;10.02;5.03;;;;;;;3.44;100.00;102800.00;5047352;28;20041;-84
2022/01/18 11:59:39;;;;;;;8.93;2.70;;;;;;;3.49;100.00;102793.25;5022329;28;20048;-85
2022/01/18 12:02:07;;;;;;;12.70;3.50;;;;;;;3.51;100.00;102796.81;5043597;28;20062;-85
2022/01/18 12:04:49;;;;;;;9.70;3.17;;;;;;;3.53;100.00;102802.09;5007050;28;20111;-84
2022/01/18 12:07:38;;;;;;;8.37;2.30;;;;;;;3.54;100.00;102811.75;5031687;28;20331;-84
2022/01/18 12:10:29;;;;;;;17.53;8.00;;;;;;;3.72;100.00;102807.31;5038013;28;20094;-84
2022/01/18 12:13:01;;;;;;;19.63;6.67;;;;;;;3.74;100.00;102809.97;5038892;28;20444;-84
2022/01/18 12:15:39;;;;;;;8.83;3.97;;;;;;;3.74;100.00;102807.34;5033199;28;20048;-84
2022/01/18 12:18:17;;;;;;;9.37;3.63;;;;;;;3.86;100.00;102790.44;5018856;28;20047;-84
2022/01/18 12:21:01;;;;;;;11.43;2.53;;;;;;;3.77;100.00;102784.84;5039109;28;20036;-84
2022/01/18 12:23:45;;;;;;;11.90;2.60;;;;;;;3.89;98.92;102781.84;5019570;28;20496;-84